createdAt,value
2019-04-22T00:03:33.930Z,34.35
2019-04-22T00:09:03.754Z,36.20
2019-04-22T00:14:06.731Z,35.95
2019-04-22T00:24:27.355Z,36.35
2019-04-22T00:34:45.485Z,39.18
2019-04-22T00:39:53.669Z,40.33
2019-04-22T00:50:25.361Z,44.03
2019-04-22T00:55:18.197Z,42.00
2019-04-22T01:00:27.685Z,41.28
2019-04-22T01:05:36.086Z,40.83
2019-04-22T01:10:40.073Z,41.30
2019-04-22T01:15:54.177Z,41.88
2019-04-22T01:21:13.625Z,40.55
2019-04-22T01:25:58.232Z,42.45
2019-04-22T01:30:53.698Z,41.92
2019-04-22T01:36:15.609Z,44.73
2019-04-22T01:41:35.324Z,43.73
2019-04-22T01:46:39.635Z,44.18
2019-04-22T01:51:51.816Z,45.85
2019-04-22T01:56:55.315Z,47.35
2019-04-22T02:01:55.069Z,49.40
2019-04-22T02:07:10.703Z,50.08
2019-04-22T02:12:12.857Z,51.58
2019-04-22T02:17:30.687Z,53.42
2019-04-22T02:22:42.824Z,55.90
2019-04-22T02:27:39.016Z,56.85
2019-04-22T02:33:08.602Z,57.48
2019-04-22T02:38:07.214Z,61.95
2019-04-22T02:43:11.895Z,60.50
2019-04-22T02:48:31.919Z,61.95
2019-04-22T02:53:58.410Z,62.50
2019-04-22T02:58:42.433Z,64.37
2019-04-22T03:03:59.235Z,64.03
2019-04-22T03:13:59.931Z,70.12
2019-04-22T03:19:05.799Z,69.95
2019-04-22T03:29:14.450Z,73.72
2019-04-22T03:35:09.735Z,74.25
2019-04-22T03:39:54.461Z,74.25
2019-04-22T03:44:39.187Z,77.03
2019-04-22T03:49:58.993Z,75.62
2019-04-22T03:55:05.075Z,75.52
2019-04-22T04:00:15.568Z,77.22
2019-04-22T04:05:10.770Z,77.95
2019-04-22T04:10:27.807Z,78.62
2019-04-22T04:15:28.417Z,82.67
2019-04-22T04:30:51.313Z,82.65
2019-04-22T04:36:03.595Z,82.92
2019-04-22T04:41:23.169Z,82.08
2019-04-22T04:56:40.431Z,86.70
2019-04-22T05:01:44.871Z,88.67
2019-04-22T05:06:53.554Z,85.03
2019-04-22T05:12:22.806Z,85.15
2019-04-22T05:27:21.981Z,89.15
2019-04-22T05:32:17.604Z,86.82
2019-04-22T05:37:27.291Z,87.90
2019-04-22T05:42:28.473Z,87.57
2019-04-22T05:47:42.265Z,89.05
2019-04-22T05:52:51.107Z,88.00
2019-04-22T05:58:02.459Z,88.03
2019-04-22T06:03:23.526Z,85.38
2019-04-22T06:08:22.140Z,89.30
2019-04-22T06:13:26.755Z,87.22
2019-04-22T06:18:36.741Z,83.67
2019-04-22T06:23:46.956Z,84.50
2019-04-22T06:28:56.952Z,84.97
2019-04-22T06:34:02.811Z,85.03
2019-04-22T06:39:14.342Z,87.13
2019-04-22T06:44:21.531Z,82.12
2019-04-22T06:54:32.870Z,82.12
2019-04-22T06:59:36.571Z,76.97
2019-04-22T07:04:50.702Z,80.07
2019-04-22T07:09:56.986Z,71.65
2019-04-22T07:15:02.787Z,67.17
2019-04-22T07:20:10.673Z,73.60
2019-04-22T07:25:17.316Z,68.92
2019-04-22T07:30:26.488Z,66.82
2019-04-22T07:35:42.540Z,62.90
2019-04-22T07:40:43.346Z,66.80
2019-04-22T07:45:48.944Z,63.55
2019-04-22T07:56:05.324Z,62.50
2019-04-22T08:01:14.021Z,59.80
2019-04-22T08:16:36.878Z,57.53
2019-04-22T08:21:45.492Z,56.92
2019-04-22T08:26:53.067Z,55.95
2019-04-22T08:32:01.161Z,57.38
2019-04-22T08:37:35.671Z,49.75
2019-04-22T08:42:18.625Z,49.77
2019-04-22T08:47:29.176Z,47.80
2019-04-22T08:52:27.501Z,52.00
2019-04-22T08:57:46.999Z,50.85
2019-04-22T09:02:49.468Z,49.60
2019-04-22T09:07:52.589Z,48.55
2019-04-22T09:23:26.921Z,47.78
2019-04-22T09:28:27.842Z,47.23
2019-04-22T09:33:31.920Z,47.98
2019-04-22T09:43:52.098Z,44.93
2019-04-22T09:49:04.746Z,44.00
2019-04-22T09:54:06.004Z,41.40
2019-04-22T09:59:07.770Z,41.73
2019-04-22T10:04:14.169Z,43.80
2019-04-22T10:09:42.396Z,40.10
2019-04-22T10:19:40.916Z,36.90
2019-04-22T10:24:52.812Z,36.17
2019-04-22T10:30:00.186Z,36.10
2019-04-22T10:35:02.274Z,32.42
2019-04-22T10:40:02.927Z,31.35
2019-04-22T10:45:08.192Z,29.05
2019-04-22T10:50:16.524Z,29.98
2019-04-22T10:55:23.465Z,28.62
2019-04-22T11:00:29.573Z,31.82
2019-04-22T11:05:37.953Z,32.28
2019-04-22T11:11:01.998Z,34.08
2019-04-22T11:15:52.982Z,30.55
2019-04-22T11:21:01.930Z,28.75
2019-04-22T11:26:08.166Z,27.42
2019-04-22T11:31:14.704Z,28.60
2019-04-22T11:36:21.791Z,27.75
2019-04-22T11:41:29.488Z,24.45
2019-04-22T11:46:35.667Z,21.50
2019-04-22T11:51:42.196Z,24.47
2019-04-22T11:56:49.505Z,24.15
2019-04-22T12:01:56.915Z,22.37
2019-04-22T12:07:04.242Z,22.70
2019-04-22T12:12:11.938Z,22.95
2019-04-22T12:17:18.100Z,22.95
2019-04-22T12:22:25.091Z,18.32
2019-04-22T12:27:32.639Z,18.35
2019-04-22T12:32:39.170Z,22.67
2019-04-22T12:37:51.479Z,23.60
2019-04-22T12:42:53.524Z,25.37
2019-04-22T12:48:02.125Z,23.38
2019-04-22T12:53:12.627Z,24.25
2019-04-22T12:58:16.164Z,21.82
2019-04-22T13:03:22.358Z,20.17
2019-04-22T13:08:29.707Z,22.35
2019-04-22T13:13:36.849Z,19.05
2019-04-22T13:18:50.275Z,21.97
2019-04-22T13:23:50.830Z,18.10
2019-04-22T13:28:57.040Z,15.48
2019-04-22T13:34:04.044Z,15.93
2019-04-22T13:39:11.311Z,19.20
2019-04-22T13:44:18.838Z,20.80
2019-04-22T13:49:59.737Z,22.10
2019-04-22T13:59:44.582Z,22.93
2019-04-22T14:04:50.515Z,23.57
2019-04-22T14:09:58.108Z,25.92
2019-04-22T14:15:06.197Z,20.85
2019-04-22T14:20:13.138Z,14.40
2019-04-22T14:25:20.649Z,17.42
2019-04-22T14:30:28.467Z,28.52
2019-04-22T14:35:35.471Z,27.87
2019-04-22T14:40:43.548Z,31.37
2019-04-22T14:46:27.573Z,30.08
2019-04-22T14:51:16.071Z,16.00
2019-04-22T14:56:05.051Z,31.27
2019-04-22T15:01:14.865Z,25.50
2019-04-22T15:06:22.306Z,23.73
2019-04-22T15:11:28.993Z,22.30
2019-04-22T15:17:05.024Z,22.52
2019-04-22T15:22:10.807Z,9.10
2019-04-22T15:27:18.337Z,9.35
2019-04-22T15:32:25.281Z,8.38
2019-04-22T15:37:33.071Z,5.92
2019-04-22T15:42:42.854Z,6.97
2019-04-22T15:47:48.300Z,6.72
2019-04-22T15:52:57.146Z,6.70
2019-04-22T15:58:03.481Z,4.87
2019-04-22T16:03:12.362Z,5.40
2019-04-22T16:08:19.023Z,4.55
2019-04-22T16:13:28.756Z,4.25
2019-04-22T16:18:32.737Z,5.15
2019-04-22T16:24:00.499Z,4.33
2019-04-22T16:29:07.323Z,5.25
2019-04-22T16:34:13.551Z,4.42
2019-04-22T16:39:20.734Z,5.05
2019-04-22T16:44:26.875Z,6.20
2019-04-22T16:49:33.897Z,5.15
2019-04-22T16:54:40.111Z,4.92
2019-04-22T16:59:46.625Z,5.35
2019-04-22T17:05:01.800Z,5.47
2019-04-22T17:10:08.399Z,5.58
2019-04-22T17:15:16.812Z,5.90
2019-04-22T17:20:22.967Z,5.67
2019-04-22T17:25:30.163Z,6.08
2019-04-22T17:30:36.288Z,6.15
2019-04-22T17:35:45.327Z,5.75
2019-04-22T17:41:06.206Z,6.05
2019-04-22T17:46:31.006Z,6.85
2019-04-22T17:51:47.731Z,6.62
2019-04-22T17:56:51.070Z,5.72
2019-04-22T18:01:53.962Z,6.45
2019-04-22T18:07:14.306Z,6.65
2019-04-22T18:12:20.109Z,8.13
2019-04-22T18:17:19.373Z,7.05
2019-04-22T18:22:20.347Z,7.80
2019-04-22T18:27:48.905Z,8.23
2019-04-22T18:32:42.559Z,7.92
2019-04-22T18:37:50.600Z,8.28
2019-04-22T18:42:56.619Z,7.42
2019-04-22T18:47:56.195Z,7.53
2019-04-22T18:53:38.779Z,7.12
2019-04-22T18:58:34.485Z,7.50
2019-04-22T19:03:30.125Z,6.75
2019-04-22T19:08:55.668Z,7.25
2019-04-22T19:14:07.690Z,8.08
2019-04-22T19:19:29.817Z,7.40
2019-04-22T19:24:15.061Z,7.10
2019-04-22T19:29:27.067Z,7.45
2019-04-22T19:34:31.996Z,7.45
2019-04-22T19:39:45.513Z,7.75
2019-04-22T19:44:53.208Z,7.75
2019-04-22T19:50:03.886Z,8.53
2019-04-22T19:55:07.622Z,10.57
2019-04-22T20:00:21.372Z,8.90
2019-04-22T20:05:43.710Z,8.28
2019-04-22T20:10:55.567Z,7.58
2019-04-22T20:15:55.280Z,8.98
2019-04-22T20:21:18.258Z,9.08
2019-04-22T20:26:15.192Z,7.80
2019-04-22T20:31:26.620Z,8.93
2019-04-22T20:36:53.096Z,7.47
2019-04-22T20:41:39.968Z,7.62
2019-04-22T20:46:49.086Z,8.10
2019-04-22T20:52:06.317Z,7.62
2019-04-22T20:57:01.063Z,8.00
2019-04-22T21:02:13.530Z,8.40
2019-04-22T21:07:20.083Z,8.10
2019-04-22T21:12:22.411Z,9.38
2019-04-22T21:17:42.917Z,9.20
2019-04-22T21:22:49.363Z,9.23
2019-04-22T21:27:56.867Z,9.38
2019-04-22T21:33:03.549Z,8.80
2019-04-22T21:38:15.158Z,9.63
2019-04-22T21:43:24.499Z,9.53
2019-04-22T21:48:37.285Z,8.70
2019-04-22T21:53:43.854Z,10.18
2019-04-22T21:59:00.161Z,11.03
2019-04-22T22:04:03.100Z,10.08
2019-04-22T22:09:15.300Z,10.00
2019-04-22T22:14:18.150Z,11.40
2019-04-22T22:19:23.980Z,11.43
2019-04-22T22:24:34.239Z,11.90
2019-04-22T22:29:49.306Z,12.80
2019-04-22T22:34:53.471Z,13.20
2019-04-22T22:39:47.481Z,18.30
2019-04-22T22:44:48.164Z,37.63
2019-04-22T22:50:12.485Z,39.90
2019-04-22T22:55:14.796Z,50.03
2019-04-22T23:00:24.548Z,55.00
2019-04-22T23:05:37.623Z,59.13
2019-04-22T23:10:52.149Z,59.05
2019-04-22T23:15:44.335Z,59.08
2019-04-22T23:20:43.626Z,58.10
2019-04-22T23:26:06.111Z,66.10
2019-04-22T23:31:09.598Z,68.67
2019-04-22T23:36:45.891Z,63.10
2019-04-22T23:41:58.532Z,61.97
2019-04-22T23:47:10.941Z,61.30
2019-04-22T23:52:23.854Z,58.63
2019-04-22T23:57:33.337Z,59.70
